createdAt,value
2019-01-24T00:03:11.549Z,-4.10
2019-01-24T00:08:06.057Z,-4.10
2019-01-24T00:13:00.285Z,-4.20
2019-01-24T00:17:54.250Z,-4.20
2019-01-24T00:22:49.310Z,-4.40
2019-01-24T00:27:43.123Z,-4.50
2019-01-24T00:32:37.455Z,-4.60
2019-01-24T00:37:31.175Z,-4.70
2019-01-24T00:42:25.812Z,-4.50
2019-01-24T00:47:19.484Z,-4.30
2019-01-24T00:52:13.626Z,-4.30
2019-01-24T00:57:07.372Z,-4.20
2019-01-24T01:02:01.226Z,-4.30
2019-01-24T01:06:55.143Z,-4.40
2019-01-24T01:11:48.918Z,-4.40
2019-01-24T01:16:44.743Z,-4.40
2019-01-24T01:21:39.114Z,-4.40
2019-01-24T01:26:32.777Z,-4.40
2019-01-24T01:31:26.564Z,-4.30
2019-01-24T01:36:20.252Z,-4.00
2019-01-24T01:41:13.926Z,-4.10
2019-01-24T01:46:07.735Z,-4.10
2019-01-24T01:51:04.364Z,-4.30
2019-01-24T01:55:58.975Z,-4.40
2019-01-24T02:00:53.358Z,-4.40
2019-01-24T02:05:47.379Z,-4.50
2019-01-24T02:10:41.151Z,-4.50
2019-01-24T02:15:34.954Z,-4.40
2019-01-24T02:20:28.732Z,-4.50
2019-01-24T02:25:24.545Z,-4.60
2019-01-24T02:30:27.725Z,-4.90
2019-01-24T02:35:21.924Z,-4.90
2019-01-24T02:40:16.119Z,-5.00
2019-01-24T02:45:15.869Z,-4.90
2019-01-24T02:50:13.675Z,-4.90
2019-01-24T02:55:10.784Z,-4.90
2019-01-24T03:00:19.439Z,-5.00
2019-01-24T03:05:19.916Z,-5.10
2019-01-24T03:10:14.930Z,-5.10
2019-01-24T03:15:12.034Z,-5.00
2019-01-24T03:20:08.507Z,-5.10
2019-01-24T03:25:05.204Z,-5.10
2019-01-24T03:30:00.015Z,-5.10
2019-01-24T03:34:53.687Z,-5.20
2019-01-24T03:39:47.554Z,-5.20
2019-01-24T03:44:41.250Z,-5.10
2019-01-24T03:49:34.982Z,-5.10
2019-01-24T03:54:28.668Z,-5.10
2019-01-24T03:59:22.591Z,-5.00
2019-01-24T04:04:17.390Z,-5.10
2019-01-24T04:09:11.326Z,-5.10
2019-01-24T04:14:05.724Z,-5.20
2019-01-24T04:18:59.467Z,-5.40
2019-01-24T04:23:53.370Z,-5.50
2019-01-24T04:28:47.993Z,-5.30
2019-01-24T04:33:42.355Z,-5.10
2019-01-24T04:38:35.975Z,-5.00
2019-01-24T04:43:29.670Z,-5.00
2019-01-24T04:48:24.020Z,-4.70
2019-01-24T04:53:18.867Z,-4.80
2019-01-24T04:58:14.305Z,-4.70
2019-01-24T05:03:08.975Z,-4.50
2019-01-24T05:08:02.723Z,-4.50
2019-01-24T05:12:57.578Z,-4.40
2019-01-24T05:17:51.461Z,-4.30
2019-01-24T05:22:45.245Z,-4.30
2019-01-24T05:27:40.756Z,-4.40
2019-01-24T05:32:37.577Z,-4.50
2019-01-24T05:37:33.513Z,-4.50
2019-01-24T05:42:29.254Z,-4.40
2019-01-24T05:47:23.215Z,-4.40
2019-01-24T05:52:19.623Z,-4.30
2019-01-24T05:57:12.601Z,-4.20
2019-01-24T06:02:06.608Z,-4.10
2019-01-24T06:07:00.929Z,-4.10
2019-01-24T06:11:54.840Z,-4.10
2019-01-24T06:16:50.832Z,-3.90
2019-01-24T06:21:45.040Z,-4.00
2019-01-24T06:26:39.510Z,-3.90
2019-01-24T06:31:33.831Z,-3.80
2019-01-24T06:36:27.518Z,-3.70
2019-01-24T06:41:23.550Z,-3.60
2019-01-24T06:46:17.306Z,-3.40
2019-01-24T06:51:11.438Z,-3.30
2019-01-24T06:56:06.631Z,-3.20
2019-01-24T07:01:01.695Z,-3.20
2019-01-24T07:05:55.603Z,-3.10
2019-01-24T07:10:51.511Z,-2.90
2019-01-24T07:15:46.056Z,-2.80
2019-01-24T07:20:42.371Z,-2.80
2019-01-24T07:25:36.769Z,-2.80
2019-01-24T07:30:31.170Z,-2.70
2019-01-24T07:35:29.109Z,-2.70
2019-01-24T07:40:24.158Z,-2.60
2019-01-24T07:45:23.622Z,-2.60
2019-01-24T07:50:17.980Z,-2.60
2019-01-24T07:55:14.153Z,-2.60
2019-01-24T08:00:15.970Z,-2.40
2019-01-24T08:05:13.639Z,-2.30
2019-01-24T08:10:10.835Z,-2.10
2019-01-24T08:15:12.004Z,-2.00
2019-01-24T08:20:12.727Z,-1.90
2019-01-24T08:25:09.937Z,-1.80
2019-01-24T08:30:11.033Z,-1.70
2019-01-24T08:35:07.372Z,-1.40
2019-01-24T08:40:01.918Z,-1.30
2019-01-24T08:44:56.651Z,-1.10
2019-01-24T08:49:51.691Z,-1.00
2019-01-24T08:54:46.482Z,-0.80
2019-01-24T08:59:44.047Z,-0.70
2019-01-24T09:04:39.018Z,-0.60
2019-01-24T09:09:33.642Z,-0.30
2019-01-24T09:14:33.079Z,-0.30
2019-01-24T09:19:29.052Z,-0.20
2019-01-24T09:24:24.317Z,0.30
2019-01-24T09:29:20.724Z,0.40
2019-01-24T09:34:15.336Z,0.20
2019-01-24T09:39:11.902Z,0.10
2019-01-24T09:44:07.753Z,0.20
2019-01-24T09:49:06.232Z,0.20
2019-01-24T09:54:04.591Z,0.20
2019-01-24T09:59:00.135Z,0.20
2019-01-24T10:03:56.733Z,0.10
2019-01-24T10:08:51.868Z,0.00
2019-01-24T10:13:46.777Z,0.20
2019-01-24T10:18:41.967Z,0.40
2019-01-24T10:23:37.095Z,0.50
2019-01-24T10:28:31.815Z,0.90
2019-01-24T10:33:27.350Z,1.10
2019-01-24T10:38:21.821Z,1.30
2019-01-24T10:43:31.382Z,1.40
2019-01-24T10:48:16.751Z,1.50
2019-01-24T10:53:11.336Z,1.50
2019-01-24T10:58:09.357Z,1.70
2019-01-24T11:03:06.077Z,1.60
2019-01-24T11:08:00.627Z,1.60
2019-01-24T11:12:55.658Z,2.00
2019-01-24T11:17:50.555Z,2.00
2019-01-24T11:22:45.432Z,2.00
2019-01-24T11:27:40.178Z,1.90
2019-01-24T11:32:35.029Z,1.50
2019-01-24T11:37:29.958Z,1.10
2019-01-24T11:42:26.106Z,1.20
2019-01-24T11:47:20.802Z,1.10
2019-01-24T11:52:19.130Z,1.30
2019-01-24T11:57:15.055Z,1.20
2019-01-24T12:02:11.303Z,1.10
2019-01-24T12:07:06.407Z,0.90
2019-01-24T12:12:00.332Z,0.80
2019-01-24T12:16:56.239Z,0.80
2019-01-24T12:21:51.422Z,0.70
2019-01-24T12:26:48.866Z,0.70
2019-01-24T12:31:43.812Z,0.70
2019-01-24T12:36:40.069Z,0.60
2019-01-24T12:41:35.922Z,0.70
2019-01-24T12:46:30.736Z,0.50
2019-01-24T12:51:28.043Z,0.50
2019-01-24T12:56:24.243Z,0.60
2019-01-24T13:01:18.656Z,0.80
2019-01-24T13:06:13.567Z,0.80
2019-01-24T13:11:08.789Z,0.90
2019-01-24T13:16:05.575Z,0.90
2019-01-24T13:21:00.374Z,1.00
2019-01-24T13:25:54.755Z,0.90
2019-01-24T13:30:49.156Z,0.90
2019-01-24T13:35:44.776Z,0.80
2019-01-24T13:40:39.618Z,0.60
2019-01-24T13:45:36.074Z,0.50
2019-01-24T13:50:29.996Z,0.40
2019-01-24T13:55:25.771Z,0.40
2019-01-24T14:00:33.630Z,0.40
2019-01-24T14:05:27.780Z,0.40
2019-01-24T14:10:23.816Z,0.40
2019-01-24T14:15:19.964Z,0.40
2019-01-24T14:20:17.539Z,0.30
2019-01-24T14:25:17.188Z,0.20
2019-01-24T14:30:14.951Z,0.20
2019-01-24T14:35:10.878Z,0.20
2019-01-24T14:40:13.891Z,0.20
2019-01-24T14:45:15.253Z,0.00
2019-01-24T14:50:14.098Z,0.20
2019-01-24T14:55:11.530Z,0.20
2019-01-24T15:00:17.488Z,0.20
2019-01-24T15:05:12.261Z,0.10
2019-01-24T15:10:11.327Z,-0.10
2019-01-24T15:15:19.165Z,-0.20
2019-01-24T15:20:14.714Z,-0.30
2019-01-24T15:25:14.465Z,-0.40
2019-01-24T15:30:21.012Z,-0.40
2019-01-24T15:35:15.423Z,-0.50
2019-01-24T15:40:15.109Z,-0.50
2019-01-24T15:45:12.402Z,-0.50
2019-01-24T15:50:09.983Z,-0.60
2019-01-24T15:55:07.835Z,-0.60
2019-01-24T16:00:02.755Z,-0.70
2019-01-24T16:04:57.211Z,-0.70
2019-01-24T16:09:51.272Z,-0.80
2019-01-24T16:14:50.641Z,-0.90
2019-01-24T16:19:48.509Z,-0.90
2019-01-24T16:24:42.706Z,-0.90
2019-01-24T16:29:38.564Z,-0.90
2019-01-24T16:39:49.989Z,-0.70
2019-01-24T16:44:52.197Z,-0.80
2019-01-24T16:49:50.248Z,-0.80
2019-01-24T16:54:45.100Z,-0.60
2019-01-24T16:59:41.674Z,-0.70
2019-01-24T17:04:37.694Z,-0.70
2019-01-24T17:09:32.179Z,-0.90
2019-01-24T17:14:28.601Z,-0.90
2019-01-24T17:19:22.443Z,-0.90
2019-01-24T17:24:16.955Z,-0.80
2019-01-24T17:29:12.778Z,-0.90
2019-01-24T17:34:07.800Z,-0.90
2019-01-24T17:39:09.796Z,-0.90
2019-01-24T17:44:06.187Z,-1.10
2019-01-24T17:49:21.107Z,-0.90
2019-01-24T17:54:15.476Z,-1.00
2019-01-24T17:59:11.450Z,-1.00
2019-01-24T18:04:07.029Z,-1.10
2019-01-24T18:09:04.747Z,-1.20
2019-01-24T18:13:59.850Z,-1.10
2019-01-24T18:18:54.070Z,-1.10
2019-01-24T18:23:49.049Z,-1.10
2019-01-24T18:28:45.365Z,-1.20
2019-01-24T18:33:40.503Z,-1.10
2019-01-24T18:38:38.535Z,-1.20
2019-01-24T18:43:32.013Z,-1.00
2019-01-24T18:48:26.408Z,-1.20
2019-01-24T18:53:21.370Z,-1.20
2019-01-24T18:58:17.317Z,-1.20
2019-01-24T19:03:11.383Z,-1.10
2019-01-24T19:08:06.577Z,-1.20
2019-01-24T19:13:02.523Z,-1.10
2019-01-24T19:17:58.677Z,-1.10
2019-01-24T19:22:54.610Z,-1.10
2019-01-24T19:27:49.198Z,-1.10
2019-01-24T19:32:44.832Z,-1.10
2019-01-24T19:37:38.679Z,-1.10
2019-01-24T19:42:35.687Z,-1.10
2019-01-24T19:47:38.063Z,-1.20
2019-01-24T19:52:32.785Z,-1.20
2019-01-24T19:57:27.096Z,-1.20
2019-01-24T20:02:21.513Z,-1.30
2019-01-24T20:07:16.466Z,-1.30
2019-01-24T20:12:12.376Z,-1.20
2019-01-24T20:17:11.402Z,-1.20
2019-01-24T20:22:07.102Z,-1.20
2019-01-24T20:27:01.616Z,-1.10
2019-01-24T20:31:59.781Z,-1.00
2019-01-24T20:36:54.074Z,-0.90
2019-01-24T20:41:48.159Z,-0.90
2019-01-24T20:46:44.718Z,-1.00
2019-01-24T20:51:40.452Z,-1.00
2019-01-24T20:56:34.227Z,-1.00
2019-01-24T21:01:28.821Z,-0.90
2019-01-24T21:06:22.922Z,-0.90
2019-01-24T21:11:17.617Z,-0.80
2019-01-24T21:16:15.460Z,-0.90
2019-01-24T21:21:12.378Z,-0.90
2019-01-24T21:26:08.661Z,-1.00
2019-01-24T21:31:09.923Z,-1.00
2019-01-24T21:36:09.667Z,-1.00
2019-01-24T21:41:07.376Z,-1.00
2019-01-24T21:46:01.855Z,-1.00
2019-01-24T21:50:57.843Z,-0.90
2019-01-24T21:55:53.179Z,-0.90
2019-01-24T22:00:48.210Z,-0.90
2019-01-24T22:05:42.419Z,-1.00
2019-01-24T22:10:36.887Z,-1.00
2019-01-24T22:15:34.665Z,-0.90
2019-01-24T22:20:31.286Z,-0.90
2019-01-24T22:25:34.646Z,-0.90
2019-01-24T22:30:40.435Z,-0.90
2019-01-24T22:35:38.467Z,-0.80
2019-01-24T22:40:32.376Z,-0.90
2019-01-24T22:45:28.757Z,-0.90
2019-01-24T22:50:26.305Z,-0.90
2019-01-24T22:55:24.010Z,-0.90
2019-01-24T23:00:48.180Z,-0.90
2019-01-24T23:05:42.486Z,-1.10
2019-01-24T23:10:38.416Z,-1.00
2019-01-24T23:15:34.978Z,-1.10
2019-01-24T23:20:29.268Z,-1.10
2019-01-24T23:25:23.473Z,-1.00
2019-01-24T23:30:18.500Z,-1.00
2019-01-24T23:35:15.778Z,-1.00
2019-01-24T23:40:12.306Z,-1.00
2019-01-24T23:45:10.180Z,-1.10
2019-01-24T23:50:07.248Z,-1.10
2019-01-24T23:55:05.539Z,-1.10
2019-01-24T23:59:59.943Z,-1.10
